Beckemeyer, Illinois
Current Conditions -  °F | °C
As of 4:15 AM on Sunday 25 Jan 2015 (Local Time) from KENL Reporting Station
Light Rain Light Rain  
Wind Chill: 41°   Ceiling: 5000
Heat Index: 44°   Visibility: 10mi
Dew Point: 34°   Wind: 6mph
Humidity: 67%   Direction: 270°W
Pressure: 29.63"   Gusts: NA
Location:  38.61°N, 89.44°W
Report Text: KENL 251015Z AUTO 27005KT 10SM -RA SCT042 BKN050 OVC060 07/01 A2963 RMK AO2 T00690012
Loading
Personal Weather Stations






























Interactive Weather Map New forecast layout! Learn more

10-Day Weather Forecast

Advertisements
Track Severe Weather on mobile